Zim Vancouver — A8LK5 — position and weather

sailwx.info

Track history (hours):
 
Tides and Currents Weather Stations Pressure Air Temp Water Temp Dewpoint Dewpoint Depression Visibility Wind Speed Wind Dir Waves Ship Positions

Zim Vancouver

Last reported at 2017-Sep-21 13:16 UTC. Time now 2017-Sep-21 21:28 UTC.
Position N 29°24' E 122°28'.

Length 260 m; draft 10.8 m.

Type: Ship. MMSI: 636013214.

Date/timePositionNaut miles runAvg speedWind from/ knotsBaromVisibWave heightAir tempDewpointWater temp
2017-Sep-21 13:16N 29°24' E 122°28'518.7
2017-Sep-21 13:00N 29°29' E 122°27'918.0
2017-Sep-21 12:31N 29°37' E 122°24'713.9
2017-Sep-21 12:00N 29°44' E 122°20'510.9
2017-Sep-21 11:30N 29°47' E 122°16'612.1
2017-Sep-21 11:00N 29°52' E 122°11'612.1
2017-Sep-21 10:31N 29°55' E 122°05'713.7
2017-Sep-21 10:00N 29°58' E 121°58'612.6
2017-Sep-21 09:30N 29°57' E 121°51'0 0.1
2017-Sep-21 06:10N 29°57' E 121°51'0 0.0
2017-Sep-21 05:52N 29°57' E 121°51'0 0.0
2017-Sep-21 05:22N 29°57' E 121°51'0 0.0
2017-Sep-21 04:58N 29°57' E 121°51'0 0.0
2017-Sep-21 04:16N 29°57' E 121°51'0 0.0
2017-Sep-21 03:53N 29°57' E 121°51'0 0.0
2017-Sep-21 03:23N 29°57' E 121°51'0 0.0
2017-Sep-21 02:58N 29°57' E 121°51'0 0.0
2017-Sep-21 02:28N 29°57' E 121°51'0 0.0
2017-Sep-21 01:22N 29°57' E 121°51'0 0.0
2017-Sep-21 00:58N 29°57' E 121°51'0 0.0
2017-Sep-21 00:10N 29°57' E 121°51'0 0.0
2017-Sep-20 23:59N 29°57' E 121°51'0 0.0
2017-Sep-20 23:11N 29°57' E 121°51'0 0.0
2017-Sep-20 22:52N 29°57' E 121°51'0 0.0
2017-Sep-20 22:28N 29°57' E 121°51'0 0.0
2017-Sep-20 21:10N 29°57' E 121°51'0 0.7
2017-Sep-20 21:00N 29°57' E 121°51'2 3.0
2017-Sep-20 20:29N 29°57' E 121°52'4 8.5
2017-Sep-20 19:58N 29°59' E 121°57'612.3
2017-Sep-20 19:30N 29°55' E 122°02'712.7
2017-Sep-20 18:59N 29°55' E 122°10'612.4
2017-Sep-20 18:30N 29°49' E 122°13'5 9.4
2017-Sep-20 17:58N 29°46' E 122°18'2 4.6
2017-Sep-20 17:29N 29°45' E 122°20'3 6.4
2017-Sep-20 17:00N 29°44' E 122°23'5 8.8
2017-Sep-20 16:29N 29°44' E 122°28'3 1.1
2017-Sep-20 13:55N 29°46' E 122°31'0 0.1
2017-Sep-20 13:13N 29°46' E 122°31'0 0.2
2017-Sep-20 12:55N 29°46' E 122°31'0 0.1
2017-Sep-20 11:37N 29°46' E 122°30'0 0.3
2017-Sep-20 11:25N 29°46' E 122°31'0 0.0
2017-Sep-20 10:55N 29°46' E 122°31'0 0.0
2017-Sep-20 09:40N 29°45' E 122°31'0 0.0
2017-Sep-20 09:16N 29°45' E 122°31'0 0.1
2017-Sep-20 08:46N 29°45' E 122°31'0 0.1
2017-Sep-20 08:19N 29°45' E 122°31'0 0.0
2017-Sep-20 07:55N 29°45' E 122°31'0 0.1
2017-Sep-20 07:25N 29°45' E 122°31'0 0.1
2017-Sep-20 06:49N 29°45' E 122°31'0 0.2
2017-Sep-20 06:19N 29°45' E 122°31'0 0.1
2017-Sep-20 05:55N 29°46' E 122°31'0 0.1
2017-Sep-20 05:22N 29°46' E 122°31'0 0.1
2017-Sep-20 04:55N 29°46' E 122°31'0 0.1
2017-Sep-20 04:19N 29°46' E 122°31'0 0.1
2017-Sep-20 03:43N 29°46' E 122°31'0 0.1
2017-Sep-20 03:01N 29°46' E 122°31'0 0.0
2017-Sep-19 22:37N 29°46' E 122°30'0 0.1
2017-Sep-19 22:16N 29°46' E 122°30'0 0.2
2017-Sep-19 21:55N 29°45' E 122°31'0 0.1
2017-Sep-19 21:25N 29°45' E 122°31'0 0.1
2017-Sep-19 20:55N 29°45' E 122°31'0 0.7
2017-Sep-19 20:30N 29°45' E 122°31'2 4.0
2017-Sep-19 20:00N 29°43' E 122°32'1 1.7
2017-Sep-19 19:30N 29°43' E 122°31'5 9.3
2017-Sep-19 19:00N 29°46' E 122°35'813.1
2017-Sep-19 18:26N 29°51' E 122°41'35 9.5
2017-Sep-19 14:46N 30°25' E 122°49'311.5
2017-Sep-19 14:30N 30°27' E 122°46'29 2.0
2017-Sep-19 00:24N 30°34' E 122°14'4 9.3
2017-Sep-18 23:59N 30°33' E 122°18'3 6.1
2017-Sep-18 23:28N 30°33' E 122°22'11 2.1
2017-Sep-18 18:05N 30°36' E 122°35'10 0.3
2017-Sep-17 08:09N 30°34' E 122°47'213.2
2017-Sep-17 08:00N 30°35' E 122°49'  
2017-Sep-14 13:15N 35°16' E 122°12'7210.0
2017-Sep-14 06:00N 34°42' E 123°30'   030 / 171018.0 0.3 31.022.7
2017-Sep-12 00:00N 53°12' E 129°42'1051175.1 270 / 131015.010.8
2017-Sep-11 18:00N 35°42' E 130°36'   320 / 151010.0 0.1 23.020.1
Track history (hours):
 
Tides and Currents Weather Stations Pressure Air Temp Water Temp Dewpoint Dewpoint Depression Visibility Wind Speed Wind Dir Waves Ship Positions

Zim Vancouver

Last reported at 2017-Sep-21 13:16 UTC. Time now 2017-Sep-21 21:28 UTC.
Position N 29°24' E 122°28'.

Length 260 m; draft 10.8 m.

Type: Ship. MMSI: 636013214.

Date/timePositionNaut miles runAvg speedWind from/ knotsBaromVisibWave heightAir tempDewpointWater temp
2017-Sep-21 13:16N 29°24' E 122°28'518.7
2017-Sep-21 13:00N 29°29' E 122°27'918.0
2017-Sep-21 12:31N 29°37' E 122°24'713.9
2017-Sep-21 12:00N 29°44' E 122°20'510.9
2017-Sep-21 11:30N 29°47' E 122°16'612.1
2017-Sep-21 11:00N 29°52' E 122°11'612.1
2017-Sep-21 10:31N 29°55' E 122°05'713.7
2017-Sep-21 10:00N 29°58' E 121°58'612.6
2017-Sep-21 09:30N 29°57' E 121°51'0 0.1
2017-Sep-21 06:10N 29°57' E 121°51'0 0.0
2017-Sep-21 05:52N 29°57' E 121°51'0 0.0
2017-Sep-21 05:22N 29°57' E 121°51'0 0.0
2017-Sep-21 04:58N 29°57' E 121°51'0 0.0
2017-Sep-21 04:16N 29°57' E 121°51'0 0.0
2017-Sep-21 03:53N 29°57' E 121°51'0 0.0
2017-Sep-21 03:23N 29°57' E 121°51'0 0.0
2017-Sep-21 02:58N 29°57' E 121°51'0 0.0
2017-Sep-21 02:28N 29°57' E 121°51'0 0.0
2017-Sep-21 01:22N 29°57' E 121°51'0 0.0
2017-Sep-21 00:58N 29°57' E 121°51'0 0.0
2017-Sep-21 00:10N 29°57' E 121°51'0 0.0
2017-Sep-20 23:59N 29°57' E 121°51'0 0.0
2017-Sep-20 23:11N 29°57' E 121°51'0 0.0
2017-Sep-20 22:52N 29°57' E 121°51'0 0.0
2017-Sep-20 22:28N 29°57' E 121°51'0 0.0
2017-Sep-20 21:10N 29°57' E 121°51'0 0.7
2017-Sep-20 21:00N 29°57' E 121°51'2 3.0
2017-Sep-20 20:29N 29°57' E 121°52'4 8.5
2017-Sep-20 19:58N 29°59' E 121°57'612.3
2017-Sep-20 19:30N 29°55' E 122°02'712.7
2017-Sep-20 18:59N 29°55' E 122°10'612.4
2017-Sep-20 18:30N 29°49' E 122°13'5 9.4
2017-Sep-20 17:58N 29°46' E 122°18'2 4.6
2017-Sep-20 17:29N 29°45' E 122°20'3 6.4
2017-Sep-20 17:00N 29°44' E 122°23'5 8.8
2017-Sep-20 16:29N 29°44' E 122°28'3 1.1
2017-Sep-20 13:55N 29°46' E 122°31'0 0.1
2017-Sep-20 13:13N 29°46' E 122°31'0 0.2
2017-Sep-20 12:55N 29°46' E 122°31'0 0.1
2017-Sep-20 11:37N 29°46' E 122°30'0 0.3
2017-Sep-20 11:25N 29°46' E 122°31'0 0.0
2017-Sep-20 10:55N 29°46' E 122°31'0 0.0
2017-Sep-20 09:40N 29°45' E 122°31'0 0.0
2017-Sep-20 09:16N 29°45' E 122°31'0 0.1
2017-Sep-20 08:46N 29°45' E 122°31'0 0.1
2017-Sep-20 08:19N 29°45' E 122°31'0 0.0
2017-Sep-20 07:55N 29°45' E 122°31'0 0.1
2017-Sep-20 07:25N 29°45' E 122°31'0 0.1
2017-Sep-20 06:49N 29°45' E 122°31'0 0.2
2017-Sep-20 06:19N 29°45' E 122°31'0 0.1
2017-Sep-20 05:55N 29°46' E 122°31'0 0.1
2017-Sep-20 05:22N 29°46' E 122°31'0 0.1
2017-Sep-20 04:55N 29°46' E 122°31'0 0.1
2017-Sep-20 04:19N 29°46' E 122°31'0 0.1
2017-Sep-20 03:43N 29°46' E 122°31'0 0.1
2017-Sep-20 03:01N 29°46' E 122°31'0 0.0
2017-Sep-19 22:37N 29°46' E 122°30'0 0.1
2017-Sep-19 22:16N 29°46' E 122°30'0 0.2
2017-Sep-19 21:55N 29°45' E 122°31'0 0.1
2017-Sep-19 21:25N 29°45' E 122°31'0 0.1
2017-Sep-19 20:55N 29°45' E 122°31'0 0.7
2017-Sep-19 20:30N 29°45' E 122°31'2 4.0
2017-Sep-19 20:00N 29°43' E 122°32'1 1.7
2017-Sep-19 19:30N 29°43' E 122°31'5 9.3
2017-Sep-19 19:00N 29°46' E 122°35'813.1
2017-Sep-19 18:26N 29°51' E 122°41'35 9.5
2017-Sep-19 14:46N 30°25' E 122°49'311.5
2017-Sep-19 14:30N 30°27' E 122°46'29 2.0
2017-Sep-19 00:24N 30°34' E 122°14'4 9.3
2017-Sep-18 23:59N 30°33' E 122°18'3 6.1
2017-Sep-18 23:28N 30°33' E 122°22'11 2.1
2017-Sep-18 18:05N 30°36' E 122°35'10 0.3
2017-Sep-17 08:09N 30°34' E 122°47'213.2
2017-Sep-17 08:00N 30°35' E 122°49'  
2017-Sep-14 13:15N 35°16' E 122°12'7210.0
2017-Sep-14 06:00N 34°42' E 123°30'   030 / 171018.0 0.3 31.022.7
2017-Sep-12 00:00N 53°12' E 129°42'1051175.1 270 / 131015.010.8
2017-Sep-11 18:00N 35°42' E 130°36'   320 / 151010.0 0.1 23.020.1

Dump ship's entire track history